Mc Donough, Georgia
Current Conditions -  °F | °C
As of 5:15 PM on Sunday 25 Jan 2015 (Local Time) from K6A2 Reporting Station
Clear Clear  
Wind Chill: 15°   Ceiling: Unl
Heat Index: 15°   Visibility: 10mi
Dew Point:   Wind: 9mph
Humidity: 42%   Direction: 200°SSW
Pressure: 29.77"   Gusts: 22mph
Location:  33.4528°N, 84.1842°W
Report Text: K6A2 252215Z AUTO 20008G19KT 170V230 10SM CLR 15/02 A2977 RMK AO2
Loading
Personal Weather Stations






























Interactive Weather Map New forecast layout! Learn more

10-Day Weather Forecast

Advertisements
Track Severe Weather on mobile